createdAt,value
2022-12-03T00:00:22.530Z,235.65
2022-12-03T00:02:51.898Z,249.70
2022-12-03T00:05:21.091Z,261.08
2022-12-03T00:07:50.259Z,263.33
2022-12-03T00:10:19.444Z,244.15
2022-12-03T00:12:48.449Z,262.85
2022-12-03T00:15:17.734Z,232.48
2022-12-03T00:17:46.690Z,273.17
2022-12-03T00:20:22.840Z,246.93
2022-12-03T00:22:52.672Z,260.33
2022-12-03T00:25:21.982Z,257.50
2022-12-03T00:27:51.082Z,255.02
2022-12-03T00:30:20.345Z,247.95
2022-12-03T00:32:49.423Z,246.00
2022-12-03T00:35:18.528Z,260.63
2022-12-03T00:37:47.536Z,249.90
2022-12-03T00:40:17.026Z,233.32
2022-12-03T00:42:46.083Z,245.38
2022-12-03T00:45:15.559Z,230.25
2022-12-03T00:47:44.536Z,227.82
2022-12-03T00:50:13.901Z,231.00
2022-12-03T00:52:43.229Z,224.52
2022-12-03T00:55:12.575Z,233.80
2022-12-03T00:57:41.364Z,235.52
2022-12-03T01:00:15.697Z,233.13
2022-12-03T01:02:49.291Z,232.05
2022-12-03T01:05:20.518Z,230.88
2022-12-03T01:07:50.644Z,249.93
2022-12-03T01:10:21.995Z,238.23
2022-12-03T01:12:52.484Z,227.30
2022-12-03T01:15:22.312Z,235.93
2022-12-03T01:17:51.899Z,253.63
2022-12-03T01:20:21.998Z,232.82
2022-12-03T01:22:52.209Z,257.55
2022-12-03T01:25:22.933Z,238.75
2022-12-03T01:27:52.929Z,244.85
2022-12-03T01:30:22.450Z,248.45
2022-12-03T01:32:52.610Z,249.25
2022-12-03T01:35:22.209Z,237.55
2022-12-03T01:37:52.094Z,237.48
2022-12-03T01:40:22.875Z,242.60
2022-12-03T01:42:52.970Z,260.20
2022-12-03T01:45:25.648Z,261.90
2022-12-03T01:47:55.736Z,259.05
2022-12-03T01:50:36.333Z,246.82
2022-12-03T01:53:06.458Z,264.42
2022-12-03T01:55:35.870Z,267.48
2022-12-03T01:58:05.457Z,250.80
2022-12-03T02:00:35.498Z,255.82
2022-12-03T02:03:12.633Z,262.00
2022-12-03T02:05:42.975Z,248.65
2022-12-03T02:08:32.034Z,258.33
2022-12-03T02:11:10.037Z,240.90
2022-12-03T02:13:40.100Z,251.55
2022-12-03T02:16:10.702Z,254.40
2022-12-03T02:18:40.294Z,264.90
2022-12-03T02:21:15.889Z,281.83
2022-12-03T02:23:59.074Z,307.25
2022-12-03T02:26:29.054Z,306.63
2022-12-03T02:28:58.527Z,300.52
2022-12-03T02:31:28.655Z,307.88
2022-12-03T02:33:57.971Z,304.52
2022-12-03T02:36:27.871Z,294.77
2022-12-03T02:38:57.871Z,383.20
2022-12-03T02:41:45.387Z,492.23
2022-12-03T02:44:15.239Z,476.13
2022-12-03T02:46:44.783Z,604.20
2022-12-03T02:49:13.847Z,636.08
2022-12-03T02:51:43.455Z,420.15
2022-12-03T02:54:13.180Z,390.80
2022-12-03T02:56:43.166Z,714.65
2022-12-03T02:59:13.713Z,481.63
2022-12-03T03:01:43.163Z,506.88
2022-12-03T03:04:13.582Z,407.42
2022-12-03T03:06:43.283Z,382.70
2022-12-03T03:09:13.050Z,353.58
2022-12-03T03:11:43.006Z,351.23
2022-12-03T03:14:12.316Z,353.80
2022-12-03T03:16:41.917Z,387.95
2022-12-03T03:19:11.603Z,396.02
2022-12-03T03:21:41.549Z,377.17
2022-12-03T03:24:11.674Z,368.52
2022-12-03T03:26:41.633Z,386.63
2022-12-03T03:29:11.538Z,375.33
2022-12-03T03:31:43.970Z,374.90
2022-12-03T03:34:15.056Z,357.45
2022-12-03T03:36:46.711Z,359.45
2022-12-03T03:39:18.023Z,349.63
2022-12-03T03:41:48.767Z,365.05
2022-12-03T03:44:18.713Z,331.05
2022-12-03T03:46:47.800Z,341.75
2022-12-03T03:49:17.980Z,333.67
2022-12-03T03:51:48.518Z,309.63
2022-12-03T03:54:18.944Z,287.20
2022-12-03T03:56:49.062Z,279.67
2022-12-03T03:59:19.403Z,272.45
2022-12-03T04:01:49.058Z,273.58
2022-12-03T04:04:25.258Z,278.15
2022-12-03T04:06:54.889Z,281.95
2022-12-03T04:09:24.435Z,287.13
2022-12-03T04:12:12.033Z,281.63
2022-12-03T04:14:41.806Z,278.23
2022-12-03T04:17:11.502Z,268.75
2022-12-03T04:19:41.325Z,272.13
2022-12-03T04:22:29.377Z,261.15
2022-12-03T04:25:19.059Z,253.90
2022-12-03T04:28:07.175Z,252.88
2022-12-03T04:30:36.758Z,285.05
2022-12-03T04:33:24.777Z,252.75
2022-12-03T04:35:54.983Z,262.05
2022-12-03T04:38:24.618Z,241.68
2022-12-03T04:41:03.322Z,231.93
2022-12-03T04:43:35.503Z,226.07
2022-12-03T04:46:05.196Z,221.87
2022-12-03T04:48:34.645Z,209.68
2022-12-03T04:51:04.509Z,213.15
2022-12-03T04:53:36.104Z,200.57
2022-12-03T04:56:06.023Z,212.05
2022-12-03T04:58:35.341Z,183.48
2022-12-03T05:01:04.874Z,198.90
2022-12-03T05:03:34.828Z,175.90
2022-12-03T05:06:04.457Z,159.10
2022-12-03T05:08:33.729Z,185.30
2022-12-03T05:11:03.418Z,181.77
2022-12-03T05:13:32.832Z,179.82
2022-12-03T05:16:03.113Z,195.80
2022-12-03T05:18:32.933Z,177.82
2022-12-03T05:21:02.517Z,173.30
2022-12-03T05:23:32.232Z,170.00
2022-12-03T05:26:01.844Z,181.20
2022-12-03T05:28:31.728Z,186.50
2022-12-03T05:31:01.215Z,165.88
2022-12-03T05:33:31.173Z,164.60
2022-12-03T05:36:01.031Z,177.02
2022-12-03T05:38:30.609Z,173.57
2022-12-03T05:41:00.343Z,182.98
2022-12-03T05:43:30.008Z,166.23
2022-12-03T05:45:59.356Z,159.38
2022-12-03T05:51:01.836Z,148.90
2022-12-03T05:53:31.365Z,157.15
2022-12-03T05:56:01.265Z,155.80
2022-12-03T05:58:30.487Z,161.48
2022-12-03T06:01:00.747Z,150.07
2022-12-03T06:03:30.445Z,149.98
2022-12-03T06:06:00.498Z,145.32
2022-12-03T06:08:30.477Z,133.30
2022-12-03T06:10:59.564Z,135.98
2022-12-03T06:13:29.480Z,148.30
2022-12-03T06:15:59.258Z,169.85
2022-12-03T06:18:28.902Z,158.75
2022-12-03T06:20:58.713Z,158.25
2022-12-03T06:23:28.621Z,156.02
2022-12-03T06:25:58.565Z,163.00
2022-12-03T06:28:28.235Z,144.45
2022-12-03T06:30:57.733Z,148.63
2022-12-03T06:33:26.736Z,151.23
2022-12-03T06:35:56.622Z,142.63
2022-12-03T06:38:26.565Z,165.95
2022-12-03T06:40:55.909Z,148.15
2022-12-03T06:43:25.796Z,147.73
2022-12-03T06:45:55.650Z,138.65
2022-12-03T06:48:26.425Z,147.85
2022-12-03T06:50:56.330Z,153.48
2022-12-03T06:53:26.955Z,152.52
2022-12-03T06:55:56.685Z,141.02
2022-12-03T06:58:26.259Z,134.02
2022-12-03T07:00:55.476Z,144.82
2022-12-03T07:03:24.633Z,141.48
2022-12-03T07:05:53.636Z,140.82
2022-12-03T07:08:22.831Z,125.15
2022-12-03T07:10:51.817Z,129.27
2022-12-03T07:13:20.994Z,138.65
2022-12-03T07:15:50.114Z,124.72
2022-12-03T07:18:19.193Z,131.30
2022-12-03T07:20:47.838Z,132.95
2022-12-03T07:23:16.987Z,132.13
2022-12-03T07:25:46.088Z,147.50
2022-12-03T07:28:15.313Z,132.38
2022-12-03T07:30:44.267Z,148.13
2022-12-03T07:33:13.320Z,141.05
2022-12-03T07:35:42.400Z,142.25
2022-12-03T07:38:11.656Z,124.35
2022-12-03T07:40:40.475Z,149.55
2022-12-03T07:43:09.685Z,145.07
2022-12-03T07:45:39.005Z,132.13
2022-12-03T07:48:08.050Z,140.05
2022-12-03T07:50:36.972Z,135.27
2022-12-03T07:53:06.027Z,134.13
2022-12-03T07:55:35.018Z,127.28
2022-12-03T07:58:04.439Z,161.65
2022-12-03T08:00:33.690Z,154.80
2022-12-03T08:03:02.538Z,157.98
2022-12-03T08:05:31.817Z,149.63
2022-12-03T08:08:00.795Z,138.15
2022-12-03T08:10:30.032Z,140.23
2022-12-03T08:13:01.016Z,137.95
2022-12-03T08:15:38.533Z,156.43
2022-12-03T08:18:23.618Z,136.82
2022-12-03T08:20:53.953Z,142.05
2022-12-03T08:23:26.278Z,141.00
2022-12-03T08:25:55.681Z,142.25
2022-12-03T08:28:30.026Z,139.50
2022-12-03T08:31:19.383Z,138.80
2022-12-03T08:33:51.226Z,128.73
2022-12-03T08:36:30.652Z,135.50
2022-12-03T08:39:38.664Z,143.25
2022-12-03T08:42:38.488Z,120.47
2022-12-03T08:45:40.769Z,119.65
2022-12-03T08:48:22.264Z,138.93
2022-12-03T08:50:51.616Z,124.80
2022-12-03T08:53:26.459Z,111.72
2022-12-03T08:56:00.858Z,130.95
2022-12-03T08:58:30.145Z,146.43
2022-12-03T09:01:17.502Z,134.32
2022-12-03T09:03:55.930Z,143.73
2022-12-03T09:06:25.218Z,168.30
2022-12-03T09:08:54.185Z,131.18
2022-12-03T09:11:23.452Z,143.55
2022-12-03T09:13:52.609Z,121.47
2022-12-03T09:16:21.685Z,127.70
2022-12-03T09:18:50.888Z,116.43
2022-12-03T09:21:19.798Z,107.63
2022-12-03T09:23:50.165Z,114.00
2022-12-03T09:26:19.229Z,100.40
2022-12-03T09:28:49.556Z,107.78
2022-12-03T09:31:18.637Z,108.95
2022-12-03T09:33:47.748Z,108.28
2022-12-03T09:36:17.334Z,93.68
2022-12-03T09:38:48.142Z,85.68
2022-12-03T09:41:17.463Z,87.72
2022-12-03T09:44:03.797Z,97.70
2022-12-03T09:46:37.434Z,104.85
2022-12-03T09:49:15.340Z,102.10
2022-12-03T09:51:46.509Z,113.05
2022-12-03T09:54:27.082Z,90.22
2022-12-03T09:56:58.341Z,98.28
2022-12-03T09:59:34.501Z,113.25
2022-12-03T10:02:04.835Z,108.63
2022-12-03T10:04:34.359Z,102.30
2022-12-03T10:07:03.620Z,101.45
2022-12-03T10:09:32.684Z,106.93
2022-12-03T10:12:02.795Z,87.28
2022-12-03T10:14:32.090Z,92.07
2022-12-03T10:17:01.109Z,76.57
2022-12-03T10:19:34.155Z,101.80
2022-12-03T10:22:03.392Z,96.05
2022-12-03T10:24:35.165Z,79.50
2022-12-03T10:27:25.798Z,83.72
2022-12-03T10:30:15.292Z,84.95
2022-12-03T10:32:50.106Z,86.47
2022-12-03T10:35:45.062Z,101.78
2022-12-03T10:38:25.415Z,99.75
2022-12-03T10:40:54.752Z,81.35
2022-12-03T10:43:26.593Z,93.60
2022-12-03T10:46:04.916Z,118.07
2022-12-03T10:48:34.191Z,101.78
2022-12-03T10:51:05.873Z,131.10
2022-12-03T10:53:39.685Z,116.53
2022-12-03T10:56:16.341Z,121.57
2022-12-03T10:58:45.319Z,111.93
2022-12-03T11:01:20.352Z,106.03
2022-12-03T11:03:50.441Z,126.80
2022-12-03T11:06:22.720Z,121.10
2022-12-03T11:08:57.874Z,116.87
2022-12-03T11:11:31.195Z,113.93
2022-12-03T11:14:07.361Z,107.10
2022-12-03T11:16:42.803Z,117.80
2022-12-03T11:19:46.587Z,131.30
2022-12-03T11:22:18.750Z,113.82
2022-12-03T11:24:47.822Z,107.60
2022-12-03T11:27:22.021Z,129.65
2022-12-03T11:29:59.381Z,115.97
2022-12-03T11:32:43.517Z,122.68
2022-12-03T11:35:25.324Z,122.82
2022-12-03T11:37:54.750Z,139.45
2022-12-03T11:40:23.510Z,127.90
2022-12-03T11:42:52.590Z,168.93
2022-12-03T11:45:32.287Z,152.63
2022-12-03T11:48:01.591Z,174.10
2022-12-03T11:50:39.814Z,156.43
2022-12-03T11:53:10.304Z,144.07
2022-12-03T11:55:42.401Z,185.50
2022-12-03T11:58:41.559Z,180.80
2022-12-03T12:01:10.891Z,187.50
2022-12-03T12:03:51.964Z,187.88
2022-12-03T12:06:22.858Z,200.05
2022-12-03T12:08:53.031Z,169.15
2022-12-03T12:11:37.112Z,207.35
2022-12-03T12:14:08.347Z,194.32
2022-12-03T12:16:53.062Z,218.15
2022-12-03T12:19:36.838Z,233.25
2022-12-03T12:22:25.899Z,246.07
2022-12-03T12:25:03.912Z,239.93
2022-12-03T12:27:46.445Z,257.95
2022-12-03T12:30:18.716Z,193.77
2022-12-03T12:32:53.205Z,216.27
2022-12-03T12:35:30.990Z,193.07
2022-12-03T12:38:09.859Z,221.70
2022-12-03T12:40:41.035Z,200.63
2022-12-03T12:43:17.617Z,212.52
2022-12-03T12:45:50.380Z,221.75
2022-12-03T12:48:32.679Z,228.68
2022-12-03T12:51:19.731Z,236.32
2022-12-03T12:53:50.372Z,255.30
2022-12-03T12:56:31.459Z,270.40
2022-12-03T12:59:11.419Z,266.58
2022-12-03T13:01:43.605Z,267.17
2022-12-03T13:04:16.756Z,282.98
2022-12-03T13:06:48.226Z,276.15
2022-12-03T13:09:21.294Z,264.30
2022-12-03T13:12:05.197Z,249.45
2022-12-03T13:14:38.777Z,283.83
2022-12-03T13:17:33.698Z,239.65
2022-12-03T13:20:09.133Z,243.57
2022-12-03T13:22:38.927Z,274.52
2022-12-03T13:28:26.658Z,266.77
2022-12-03T13:30:55.476Z,274.20
2022-12-03T13:33:27.805Z,259.95
2022-12-03T13:35:58.158Z,264.50
2022-12-03T13:38:27.446Z,266.83
2022-12-03T13:41:04.682Z,300.80
2022-12-03T13:43:39.938Z,299.30
2022-12-03T13:46:12.871Z,281.45
2022-12-03T13:48:44.325Z,296.00
2022-12-03T13:51:25.920Z,297.63
2022-12-03T13:53:56.192Z,298.63
2022-12-03T13:56:34.838Z,316.95
2022-12-03T13:59:05.583Z,292.48
2022-12-03T14:01:35.572Z,338.52
2022-12-03T14:04:04.934Z,368.80
2022-12-03T14:06:34.801Z,348.48
2022-12-03T14:09:04.211Z,356.27
2022-12-03T14:11:51.722Z,340.50
2022-12-03T14:14:21.128Z,325.17
2022-12-03T14:16:51.424Z,356.25
2022-12-03T14:19:22.182Z,372.65
2022-12-03T14:21:51.096Z,335.40
2022-12-03T14:24:20.323Z,322.13
2022-12-03T14:26:49.359Z,310.63
2022-12-03T14:29:19.105Z,331.80
2022-12-03T14:31:47.961Z,345.50
2022-12-03T14:34:17.018Z,351.17
2022-12-03T14:36:46.258Z,346.58
2022-12-03T14:39:17.615Z,369.70
2022-12-03T14:42:05.138Z,362.25
2022-12-03T14:44:34.186Z,387.35
2022-12-03T14:47:03.700Z,382.92
2022-12-03T14:49:32.840Z,400.02
2022-12-03T14:52:02.167Z,376.55
2022-12-03T14:54:31.357Z,390.85
2022-12-03T14:57:00.589Z,386.52
2022-12-03T14:59:29.617Z,379.65
2022-12-03T15:01:59.327Z,395.05
2022-12-03T15:04:28.436Z,429.85
2022-12-03T15:06:57.674Z,415.42
2022-12-03T15:09:26.930Z,439.77
2022-12-03T15:11:59.775Z,454.50
2022-12-03T15:14:29.419Z,441.33
2022-12-03T15:16:58.832Z,458.02
2022-12-03T15:19:28.278Z,487.25
2022-12-03T15:21:57.383Z,470.40
2022-12-03T15:24:26.593Z,461.60
2022-12-03T15:26:56.832Z,491.77
2022-12-03T15:29:26.233Z,475.98
2022-12-03T15:31:55.775Z,453.73
2022-12-03T15:34:24.920Z,456.33
2022-12-03T15:36:54.426Z,472.20
2022-12-03T15:39:24.172Z,440.45
2022-12-03T15:41:56.167Z,439.37
2022-12-03T15:44:25.431Z,432.55
2022-12-03T15:46:54.479Z,439.70
2022-12-03T15:49:23.824Z,433.08
2022-12-03T15:51:52.609Z,450.02
2022-12-03T15:54:21.781Z,451.83
2022-12-03T15:56:56.834Z,471.25
2022-12-03T15:59:26.970Z,465.23
2022-12-03T16:01:56.287Z,472.77
2022-12-03T16:04:25.415Z,476.42
2022-12-03T16:06:54.698Z,471.75
2022-12-03T16:09:27.032Z,484.90
2022-12-03T16:11:57.912Z,483.17
2022-12-03T16:14:27.256Z,467.75
2022-12-03T16:16:56.367Z,494.85
2022-12-03T16:19:25.778Z,488.63
2022-12-03T16:21:56.060Z,503.48
2022-12-03T16:24:25.231Z,479.73
2022-12-03T16:26:54.516Z,466.95
2022-12-03T16:29:23.562Z,471.92
2022-12-03T16:31:52.913Z,472.55
2022-12-03T16:34:22.269Z,454.95
2022-12-03T16:36:51.594Z,468.70
2022-12-03T16:39:20.643Z,458.10
2022-12-03T16:41:49.914Z,468.65
2022-12-03T16:44:33.113Z,478.48
2022-12-03T16:47:02.802Z,471.35
2022-12-03T16:49:32.255Z,466.20
2022-12-03T16:52:01.578Z,460.25
2022-12-03T16:54:30.399Z,474.33
2022-12-03T16:56:59.688Z,469.75
2022-12-03T16:59:29.077Z,465.02
2022-12-03T17:01:58.231Z,453.33
2022-12-03T17:04:27.626Z,458.85
2022-12-03T17:06:56.717Z,467.10
2022-12-03T17:09:26.115Z,454.83
2022-12-03T17:11:55.201Z,474.23
2022-12-03T17:14:28.519Z,446.02
2022-12-03T17:17:00.854Z,468.77
2022-12-03T17:19:30.106Z,463.73
2022-12-03T17:22:00.904Z,451.02
2022-12-03T17:24:29.910Z,498.52
2022-12-03T17:26:59.153Z,526.95
2022-12-03T17:29:28.147Z,472.58
2022-12-03T17:31:57.473Z,474.23
2022-12-03T17:34:26.608Z,452.67
2022-12-03T17:36:56.078Z,456.15
2022-12-03T17:39:25.143Z,461.52
2022-12-03T17:41:53.913Z,433.23
2022-12-03T17:44:23.174Z,488.95
2022-12-03T17:46:52.349Z,484.42
2022-12-03T17:49:22.442Z,434.50
2022-12-03T17:54:22.894Z,486.98
2022-12-03T17:56:51.916Z,541.55
2022-12-03T17:59:21.050Z,515.05
2022-12-03T18:01:50.342Z,522.65
2022-12-03T18:04:19.396Z,570.47
2022-12-03T18:06:49.028Z,522.08
2022-12-03T18:09:17.901Z,500.88
2022-12-03T18:11:46.937Z,501.55
2022-12-03T18:14:16.032Z,471.67
2022-12-03T18:16:45.383Z,475.00
2022-12-03T18:19:14.733Z,465.55
2022-12-03T18:21:43.780Z,479.00
2022-12-03T18:24:12.733Z,461.77
2022-12-03T18:26:43.442Z,466.92
2022-12-03T18:29:12.367Z,468.88
2022-12-03T18:31:41.633Z,439.90
2022-12-03T18:34:10.600Z,479.08
2022-12-03T18:36:40.345Z,455.13
2022-12-03T18:39:14.753Z,487.08
2022-12-03T18:41:44.047Z,462.30
2022-12-03T18:44:13.013Z,476.50
2022-12-03T18:46:53.310Z,572.08
2022-12-03T18:49:23.761Z,585.40
2022-12-03T18:51:59.069Z,471.08
2022-12-03T18:54:28.606Z,485.77
2022-12-03T18:56:57.955Z,439.98
2022-12-03T18:59:27.168Z,462.58
2022-12-03T19:01:56.583Z,433.83
2022-12-03T19:04:25.909Z,362.20
2022-12-03T19:06:55.213Z,348.50
2022-12-03T19:09:24.700Z,351.88
2022-12-03T19:11:53.504Z,363.88
2022-12-03T19:14:22.561Z,349.77
2022-12-03T19:16:51.927Z,363.35
2022-12-03T19:19:21.201Z,368.20
2022-12-03T19:21:49.947Z,381.02
2022-12-03T19:24:26.301Z,394.35
2022-12-03T19:26:58.779Z,380.27
2022-12-03T19:29:28.117Z,387.27
2022-12-03T19:31:57.201Z,366.08
2022-12-03T19:34:26.297Z,393.70
2022-12-03T19:36:55.659Z,398.05
2022-12-03T19:39:25.061Z,383.58
2022-12-03T19:41:54.483Z,385.10
2022-12-03T19:44:23.272Z,380.85
2022-12-03T19:46:54.004Z,377.42
2022-12-03T19:49:23.332Z,383.20
2022-12-03T19:51:55.398Z,378.25
2022-12-03T19:54:25.337Z,385.80
2022-12-03T19:56:54.531Z,398.25
2022-12-03T19:59:23.483Z,396.48
2022-12-03T20:01:52.957Z,396.80
2022-12-03T20:04:22.278Z,376.75
2022-12-03T20:06:51.493Z,381.70
2022-12-03T20:09:23.635Z,388.17
2022-12-03T20:11:53.331Z,371.05
2022-12-03T20:14:22.331Z,386.58
2022-12-03T20:16:51.430Z,369.52
2022-12-03T20:19:20.592Z,371.08
2022-12-03T20:21:49.657Z,367.35
2022-12-03T20:24:20.479Z,381.27
2022-12-03T20:26:49.419Z,353.38
2022-12-03T20:29:19.199Z,373.90
2022-12-03T20:31:48.188Z,354.02
2022-12-03T20:34:17.160Z,348.63
2022-12-03T20:36:46.724Z,357.90
2022-12-03T20:39:15.898Z,374.52
2022-12-03T20:41:44.890Z,570.58
2022-12-03T20:44:15.182Z,479.00
2022-12-03T20:46:44.575Z,577.10
2022-12-03T20:49:13.815Z,566.67
2022-12-03T20:51:43.680Z,562.40
2022-12-03T20:54:12.951Z,557.78
2022-12-03T20:56:43.011Z,669.58
2022-12-03T20:59:17.058Z,586.70
2022-12-03T21:01:46.397Z,451.00
2022-12-03T21:04:15.618Z,577.28
2022-12-03T21:06:45.186Z,448.90
2022-12-03T21:09:14.757Z,450.05
2022-12-03T21:11:44.219Z,445.75
2022-12-03T21:14:13.417Z,426.45
2022-12-03T21:17:16.317Z,420.30
2022-12-03T21:19:36.465Z,382.40
2022-12-03T21:22:05.970Z,391.40
2022-12-03T21:24:35.665Z,416.38
2022-12-03T21:27:04.801Z,457.38
2022-12-03T21:29:34.364Z,513.60
2022-12-03T21:32:03.496Z,517.33
2022-12-03T21:34:36.057Z,502.45
2022-12-03T21:37:05.980Z,494.30
2022-12-03T21:39:35.451Z,488.80
2022-12-03T21:42:34.836Z,468.60
2022-12-03T21:44:54.772Z,474.65
2022-12-03T21:47:23.897Z,430.63
2022-12-03T21:49:52.927Z,465.73
2022-12-03T21:52:22.715Z,449.63
2022-12-03T21:54:53.864Z,443.73
2022-12-03T21:57:23.424Z,425.73
2022-12-03T21:59:52.382Z,426.95
2022-12-03T22:02:21.849Z,411.38
2022-12-03T22:04:52.338Z,455.50
2022-12-03T22:07:21.362Z,475.05
2022-12-03T22:09:50.145Z,444.77
2022-12-03T22:12:19.734Z,433.90
2022-12-03T22:14:48.607Z,424.45
2022-12-03T22:17:17.860Z,447.63
2022-12-03T22:19:46.914Z,424.15
2022-12-03T22:22:16.041Z,430.15
2022-12-03T22:24:47.201Z,411.58
2022-12-03T22:27:16.909Z,410.98
2022-12-03T22:29:46.172Z,415.08
2022-12-03T22:32:15.583Z,416.80
2022-12-03T22:34:44.669Z,421.73
2022-12-03T22:37:13.810Z,416.77
2022-12-03T22:39:42.617Z,397.25
2022-12-03T22:42:12.334Z,405.45
2022-12-03T22:44:41.071Z,400.17
2022-12-03T22:47:10.073Z,437.27
2022-12-03T22:49:39.251Z,440.95
2022-12-03T22:52:09.417Z,469.08
2022-12-03T22:54:38.430Z,475.45
2022-12-03T22:57:07.497Z,489.30
2022-12-03T22:59:36.597Z,483.13
2022-12-03T23:02:05.821Z,483.27
2022-12-03T23:04:35.179Z,485.92
2022-12-03T23:07:04.243Z,491.70
2022-12-03T23:09:33.390Z,437.33
2022-12-03T23:12:02.740Z,435.02
2022-12-03T23:14:31.531Z,438.17
2022-12-03T23:17:00.584Z,432.98
2022-12-03T23:19:29.790Z,417.58
2022-12-03T23:21:59.410Z,419.08
2022-12-03T23:24:29.924Z,427.65
2022-12-03T23:26:58.911Z,425.23
2022-12-03T23:29:27.676Z,430.30
2022-12-03T23:31:58.915Z,423.67
2022-12-03T23:34:28.175Z,451.90
2022-12-03T23:36:57.188Z,432.60
2022-12-03T23:39:26.775Z,437.60
2022-12-03T23:41:55.564Z,465.02
2022-12-03T23:44:25.018Z,427.80
2022-12-03T23:46:54.126Z,441.38
2022-12-03T23:49:23.450Z,467.88
2022-12-03T23:51:52.497Z,484.85
2022-12-03T23:54:21.765Z,486.83
2022-12-03T23:56:50.828Z,505.48
2022-12-03T23:59:20.115Z,494.50
